createdAt,value
2023-04-09T00:02:16.313Z,6.10
2023-04-09T00:04:44.208Z,6.10
2023-04-09T00:07:11.485Z,6.10
2023-04-09T00:09:38.888Z,6.10
2023-04-09T00:12:06.403Z,6.00
2023-04-09T00:14:33.664Z,6.00
2023-04-09T00:17:01.167Z,5.90
2023-04-09T00:19:28.434Z,5.90
2023-04-09T00:21:56.243Z,5.80
2023-04-09T00:24:23.487Z,5.80
2023-04-09T00:26:50.775Z,5.80
2023-04-09T00:29:18.036Z,5.70
2023-04-09T00:31:45.458Z,5.70
2023-04-09T00:34:12.668Z,5.60
2023-04-09T00:36:40.018Z,5.60
2023-04-09T00:39:07.256Z,5.50
2023-04-09T00:41:34.424Z,5.50
2023-04-09T00:44:02.733Z,5.50
2023-04-09T00:46:31.762Z,5.40
2023-04-09T00:48:59.801Z,5.40
2023-04-09T00:51:28.717Z,5.40
2023-04-09T00:53:59.110Z,5.50
2023-04-09T00:56:27.636Z,5.40
2023-04-09T00:58:54.944Z,5.50
2023-04-09T01:01:22.290Z,5.50
2023-04-09T01:03:49.896Z,5.50
2023-04-09T01:06:37.910Z,5.50
2023-04-09T01:09:08.296Z,5.60
2023-04-09T01:11:56.926Z,5.60
2023-04-09T01:14:49.601Z,5.60
2023-04-09T01:17:43.439Z,5.60
2023-04-09T01:20:48.555Z,5.50
2023-04-09T01:23:51.905Z,5.60
2023-04-09T01:27:03.226Z,5.60
2023-04-09T01:29:46.369Z,5.50
2023-04-09T01:32:18.728Z,5.60
2023-04-09T01:34:48.029Z,5.60
2023-04-09T01:37:19.530Z,5.60
2023-04-09T01:39:47.229Z,5.50
2023-04-09T01:42:17.690Z,5.60
2023-04-09T01:44:46.829Z,5.60
2023-04-09T01:47:14.611Z,5.60
2023-04-09T01:49:44.424Z,5.50
2023-04-09T01:52:12.166Z,5.50
2023-04-09T01:54:39.446Z,5.50
2023-04-09T01:57:06.776Z,5.50
2023-04-09T01:59:34.056Z,5.50
2023-04-09T02:02:09.633Z,5.50
2023-04-09T02:04:48.243Z,5.50
2023-04-09T02:07:56.210Z,5.50
2023-04-09T02:10:27.724Z,5.50
2023-04-09T02:12:57.332Z,5.50
2023-04-09T02:15:28.490Z,5.50
2023-04-09T02:17:56.250Z,5.50
2023-04-09T02:20:24.750Z,5.60
2023-04-09T02:22:52.147Z,5.60
2023-04-09T02:25:19.688Z,5.60
2023-04-09T02:27:46.964Z,5.60
2023-04-09T02:30:14.179Z,5.70
2023-04-09T02:32:41.625Z,5.70
2023-04-09T02:35:09.140Z,5.70
2023-04-09T02:37:36.432Z,5.70
2023-04-09T02:40:04.581Z,5.80
2023-04-09T02:42:31.892Z,5.80
2023-04-09T02:44:59.116Z,5.80
2023-04-09T02:47:27.317Z,5.80
2023-04-09T02:49:56.185Z,5.90
2023-04-09T02:52:25.018Z,5.80
2023-04-09T02:54:53.571Z,5.80
2023-04-09T02:57:20.798Z,5.80
2023-04-09T02:59:49.190Z,5.80
2023-04-09T03:02:16.592Z,5.90
2023-04-09T03:04:43.921Z,5.90
2023-04-09T03:07:12.501Z,5.90
2023-04-09T03:09:40.094Z,5.90
2023-04-09T03:12:07.417Z,5.90
2023-04-09T03:14:35.361Z,6.00
2023-04-09T03:17:02.724Z,6.00
2023-04-09T03:19:31.500Z,6.00
2023-04-09T03:21:58.786Z,6.00
2023-04-09T03:24:26.064Z,6.10
2023-04-09T03:26:53.354Z,6.10
2023-04-09T03:29:20.837Z,6.10
2023-04-09T03:31:48.044Z,6.10
2023-04-09T03:34:15.489Z,6.10
2023-04-09T03:36:42.770Z,6.10
2023-04-09T03:39:10.005Z,6.10
2023-04-09T03:41:37.276Z,6.10
2023-04-09T03:44:04.634Z,6.10
2023-04-09T03:46:31.826Z,6.20
2023-04-09T03:48:59.192Z,6.20
2023-04-09T03:51:27.298Z,6.20
2023-04-09T03:53:55.603Z,6.20
2023-04-09T03:56:23.229Z,6.20
2023-04-09T03:58:50.846Z,6.20
2023-04-09T04:01:18.510Z,6.10
2023-04-09T04:03:46.073Z,6.10
2023-04-09T04:06:13.365Z,6.10
2023-04-09T04:08:41.105Z,6.10
2023-04-09T04:11:08.394Z,6.10
2023-04-09T04:13:35.653Z,6.20
2023-04-09T04:16:08.768Z,6.20
2023-04-09T04:18:37.392Z,6.20
2023-04-09T04:21:04.723Z,6.20
2023-04-09T04:23:31.937Z,6.20
2023-04-09T04:25:59.243Z,6.30
2023-04-09T04:28:26.441Z,6.30
2023-04-09T04:30:53.656Z,6.30
2023-04-09T04:33:20.990Z,6.30
2023-04-09T04:35:48.400Z,6.40
2023-04-09T04:38:15.768Z,6.40
2023-04-09T04:40:42.968Z,6.40
2023-04-09T04:43:10.330Z,6.50
2023-04-09T04:45:37.625Z,6.50
2023-04-09T04:48:05.004Z,6.60
2023-04-09T04:50:32.820Z,6.60
2023-04-09T04:53:00.049Z,6.60
2023-04-09T04:55:27.295Z,6.60
2023-04-09T04:57:54.544Z,6.60
2023-04-09T05:00:21.936Z,6.60
2023-04-09T05:02:49.332Z,6.50
2023-04-09T05:05:16.755Z,6.60
2023-04-09T05:07:44.420Z,6.60
2023-04-09T05:10:11.665Z,6.60
2023-04-09T05:12:38.914Z,6.70
2023-04-09T05:15:07.184Z,6.70
2023-04-09T05:17:34.403Z,6.70
2023-04-09T05:20:01.617Z,6.80
2023-04-09T05:22:29.016Z,6.80
2023-04-09T05:24:56.498Z,6.80
2023-04-09T05:27:26.093Z,6.90
2023-04-09T05:29:53.357Z,6.90
2023-04-09T05:32:20.694Z,7.00
2023-04-09T05:34:48.014Z,7.00
2023-04-09T05:37:15.553Z,7.00
2023-04-09T05:39:43.123Z,7.00
2023-04-09T05:42:10.655Z,7.00
2023-04-09T05:44:38.950Z,7.00
2023-04-09T05:47:06.209Z,7.00
2023-04-09T05:49:33.721Z,6.90
2023-04-09T05:52:02.042Z,6.90
2023-04-09T05:54:29.189Z,6.90
2023-04-09T05:56:56.534Z,7.00
2023-04-09T05:59:24.038Z,7.00
2023-04-09T06:01:52.388Z,7.10
2023-04-09T06:04:19.752Z,7.20
2023-04-09T06:06:47.221Z,7.30
2023-04-09T06:09:17.297Z,7.40
2023-04-09T06:11:44.676Z,7.50
2023-04-09T06:14:16.520Z,7.60
2023-04-09T06:16:43.829Z,7.60
2023-04-09T06:19:12.508Z,7.70
2023-04-09T06:21:40.956Z,7.70
2023-04-09T06:24:08.105Z,7.80
2023-04-09T06:26:36.661Z,7.80
2023-04-09T06:29:04.840Z,7.90
2023-04-09T06:31:32.250Z,7.90
2023-04-09T06:33:59.912Z,8.10
2023-04-09T06:36:27.930Z,8.10
2023-04-09T06:38:56.569Z,8.20
2023-04-09T06:41:24.248Z,8.30
2023-04-09T06:43:51.759Z,8.40
2023-04-09T06:46:20.442Z,8.50
2023-04-09T06:48:54.274Z,8.60
2023-04-09T06:51:21.504Z,8.70
2023-04-09T06:53:49.896Z,8.90
2023-04-09T06:56:17.277Z,9.00
2023-04-09T06:58:44.520Z,9.10
2023-04-09T07:01:12.908Z,9.20
2023-04-09T07:03:40.742Z,9.30
2023-04-09T07:06:08.368Z,9.50
2023-04-09T07:08:38.238Z,9.70
2023-04-09T07:11:07.946Z,9.70
2023-04-09T07:13:35.371Z,9.70
2023-04-09T07:16:02.597Z,9.70
2023-04-09T07:18:31.206Z,9.70
2023-04-09T07:20:59.333Z,9.80
2023-04-09T07:23:27.308Z,10.00
2023-04-09T07:25:55.702Z,10.20
2023-04-09T07:28:22.942Z,10.30
2023-04-09T07:30:51.684Z,10.50
2023-04-09T07:33:18.930Z,10.50
2023-04-09T07:35:47.037Z,10.60
2023-04-09T07:38:14.376Z,10.60
2023-04-09T07:40:41.672Z,10.60
2023-04-09T07:43:09.089Z,10.50
2023-04-09T07:45:37.766Z,10.50
2023-04-09T07:48:08.970Z,10.40
2023-04-09T07:50:38.162Z,10.30
2023-04-09T07:53:05.427Z,10.20
2023-04-09T07:55:34.147Z,10.20
2023-04-09T07:58:01.549Z,10.20
2023-04-09T08:00:28.902Z,10.30
2023-04-09T08:02:59.368Z,10.30
2023-04-09T08:05:27.256Z,10.30
2023-04-09T08:07:56.301Z,10.30
2023-04-09T08:10:26.118Z,10.30
2023-04-09T08:13:04.218Z,10.40
2023-04-09T08:15:31.501Z,10.30
2023-04-09T08:17:59.010Z,10.30
2023-04-09T08:20:26.402Z,10.20
2023-04-09T08:22:53.598Z,10.20
2023-04-09T08:25:21.196Z,10.20
2023-04-09T08:27:48.591Z,10.40
2023-04-09T08:30:18.268Z,10.50
2023-04-09T08:32:47.182Z,10.70
2023-04-09T08:35:14.466Z,10.80
2023-04-09T08:37:41.743Z,11.00
2023-04-09T08:40:12.109Z,11.10
2023-04-09T08:42:46.576Z,11.10
2023-04-09T08:45:14.356Z,11.10
2023-04-09T08:47:43.774Z,11.00
2023-04-09T08:50:11.423Z,11.00
2023-04-09T08:52:39.590Z,10.90
2023-04-09T08:55:08.268Z,10.90
2023-04-09T08:57:39.643Z,10.80
2023-04-09T09:00:09.065Z,10.80
2023-04-09T09:02:36.907Z,10.80
2023-04-09T09:05:05.986Z,10.80
2023-04-09T09:07:34.275Z,10.80
2023-04-09T09:10:05.612Z,10.80
2023-04-09T09:12:51.860Z,10.80
2023-04-09T09:15:29.914Z,10.90
2023-04-09T09:18:00.860Z,10.90
2023-04-09T09:20:28.877Z,11.00
2023-04-09T09:22:57.092Z,10.90
2023-04-09T09:25:26.247Z,11.00
2023-04-09T09:27:55.435Z,10.90
2023-04-09T09:30:27.616Z,10.90
2023-04-09T09:33:04.797Z,11.10
2023-04-09T09:35:55.282Z,11.10
2023-04-09T09:38:22.606Z,11.00
2023-04-09T09:40:50.351Z,10.90
2023-04-09T09:43:17.590Z,10.80
2023-04-09T09:45:47.231Z,10.80
2023-04-09T09:48:15.916Z,10.90
2023-04-09T09:50:49.409Z,10.80
2023-04-09T09:53:22.969Z,10.80
2023-04-09T09:55:57.356Z,10.80
2023-04-09T09:58:56.846Z,10.70
2023-04-09T10:01:28.069Z,10.80
2023-04-09T10:03:57.564Z,10.90
2023-04-09T10:06:25.104Z,11.10
2023-04-09T10:08:58.375Z,11.10
2023-04-09T10:11:26.225Z,11.10
2023-04-09T10:14:01.454Z,11.10
2023-04-09T10:16:29.404Z,11.00
2023-04-09T10:18:58.864Z,11.00
2023-04-09T10:22:12.405Z,11.10
2023-04-09T10:24:42.499Z,11.20
2023-04-09T10:27:16.434Z,11.30
2023-04-09T10:29:47.186Z,11.10
2023-04-09T10:32:26.791Z,11.00
2023-04-09T10:34:59.902Z,10.90
2023-04-09T10:37:28.825Z,10.80
2023-04-09T10:39:57.933Z,10.80
2023-04-09T10:42:35.455Z,10.90
2023-04-09T10:45:14.951Z,11.00
2023-04-09T10:47:44.257Z,11.20
2023-04-09T10:50:32.268Z,11.30
2023-04-09T10:53:00.866Z,11.60
2023-04-09T10:55:38.434Z,11.90
2023-04-09T10:58:13.273Z,12.20
2023-04-09T11:00:46.727Z,12.40
2023-04-09T11:03:25.334Z,12.50
2023-04-09T11:06:05.929Z,12.60
2023-04-09T11:08:34.481Z,12.60
2023-04-09T11:11:02.630Z,12.60
2023-04-09T11:13:32.600Z,12.60
2023-04-09T11:16:01.907Z,12.60
2023-04-09T11:18:31.449Z,12.70
2023-04-09T11:21:03.331Z,12.70
2023-04-09T11:23:33.295Z,12.80
2023-04-09T11:26:02.148Z,12.80
2023-04-09T11:28:29.499Z,12.80
2023-04-09T11:30:57.896Z,12.70
2023-04-09T11:33:35.463Z,12.50
2023-04-09T11:36:09.237Z,12.20
2023-04-09T11:38:39.012Z,12.00
2023-04-09T11:41:07.673Z,11.90
2023-04-09T11:43:36.960Z,11.80
2023-04-09T11:46:08.105Z,11.60
2023-04-09T11:48:35.801Z,11.60
2023-04-09T11:51:06.844Z,11.50
2023-04-09T11:53:37.594Z,11.30
2023-04-09T11:56:05.232Z,11.10
2023-04-09T11:58:32.457Z,10.90
2023-04-09T12:01:04.621Z,10.70
2023-04-09T12:03:33.748Z,10.70
2023-04-09T12:06:04.449Z,10.70
2023-04-09T12:08:35.102Z,10.70
2023-04-09T12:11:31.729Z,10.60
2023-04-09T12:14:17.441Z,10.70
2023-04-09T12:16:45.404Z,10.80
2023-04-09T12:19:14.175Z,10.80
2023-04-09T12:21:56.183Z,10.90
2023-04-09T12:24:26.462Z,11.00
2023-04-09T12:26:53.811Z,11.20
2023-04-09T12:29:21.958Z,11.30
2023-04-09T12:31:49.255Z,11.40
2023-04-09T12:34:16.534Z,11.40
2023-04-09T12:36:43.792Z,11.50
2023-04-09T12:39:11.117Z,11.50
2023-04-09T12:41:38.968Z,11.60
2023-04-09T12:44:07.431Z,11.70
2023-04-09T12:46:34.672Z,11.90
2023-04-09T12:49:02.199Z,12.00
2023-04-09T12:51:29.564Z,11.90
2023-04-09T12:53:56.890Z,11.70
2023-04-09T12:56:24.913Z,11.70
2023-04-09T12:58:52.813Z,11.60
2023-04-09T13:01:21.828Z,11.70
2023-04-09T13:03:49.363Z,11.70
2023-04-09T13:06:17.238Z,11.80
2023-04-09T13:08:44.731Z,12.00
2023-04-09T13:11:13.005Z,12.20
2023-04-09T13:13:42.587Z,12.30
2023-04-09T13:16:10.121Z,12.40
2023-04-09T13:18:37.561Z,12.60
2023-04-09T13:21:04.959Z,12.80
2023-04-09T13:23:32.249Z,13.20
2023-04-09T13:26:01.278Z,13.60
2023-04-09T13:28:28.550Z,14.10
2023-04-09T13:30:56.003Z,14.40
2023-04-09T13:33:23.465Z,14.40
2023-04-09T13:35:51.351Z,14.40
2023-04-09T13:38:18.649Z,14.30
2023-04-09T13:40:46.184Z,14.20
2023-04-09T13:43:13.436Z,14.20
2023-04-09T13:45:40.882Z,14.10
2023-04-09T13:48:08.253Z,14.00
2023-04-09T13:50:35.750Z,13.70
2023-04-09T13:53:05.310Z,13.50
2023-04-09T13:55:32.584Z,13.30
2023-04-09T13:57:59.789Z,13.10
2023-04-09T14:00:27.216Z,13.00
2023-04-09T14:02:54.640Z,13.00
2023-04-09T14:05:22.175Z,13.10
2023-04-09T14:07:49.504Z,13.10
2023-04-09T14:10:16.899Z,13.30
2023-04-09T14:12:44.214Z,13.40
2023-04-09T14:15:11.702Z,13.40
2023-04-09T14:17:39.659Z,13.30
2023-04-09T14:20:07.907Z,13.30
2023-04-09T14:22:35.193Z,13.10
2023-04-09T14:25:02.646Z,13.00
2023-04-09T14:27:29.891Z,12.90
2023-04-09T14:29:57.187Z,12.90
2023-04-09T14:32:24.583Z,12.90
2023-04-09T14:34:52.236Z,12.80
2023-04-09T14:37:19.635Z,12.80
2023-04-09T14:39:46.886Z,12.80
2023-04-09T14:42:14.471Z,12.80
2023-04-09T14:44:41.789Z,12.90
2023-04-09T14:47:10.193Z,13.00
2023-04-09T14:49:37.508Z,13.10
2023-04-09T14:52:04.980Z,13.10
2023-04-09T14:54:34.208Z,13.10
2023-04-09T14:57:03.611Z,13.20
2023-04-09T14:59:31.161Z,13.10
2023-04-09T15:01:58.488Z,13.10
2023-04-09T15:04:25.922Z,13.10
2023-04-09T15:06:53.225Z,13.20
2023-04-09T15:09:23.566Z,13.30
2023-04-09T15:11:50.810Z,13.40
2023-04-09T15:14:20.422Z,13.50
2023-04-09T15:16:49.424Z,13.50
2023-04-09T15:19:17.011Z,13.50
2023-04-09T15:21:44.315Z,13.50
2023-04-09T15:24:11.667Z,13.40
2023-04-09T15:26:39.009Z,13.30
2023-04-09T15:29:08.412Z,13.30
2023-04-09T15:31:36.419Z,13.30
2023-04-09T15:34:04.104Z,13.30
2023-04-09T15:36:33.760Z,13.30
2023-04-09T15:39:06.707Z,13.10
2023-04-09T15:41:34.328Z,13.00
2023-04-09T15:44:01.594Z,12.90
2023-04-09T15:46:28.823Z,12.80
2023-04-09T15:48:56.103Z,12.70
2023-04-09T15:51:23.286Z,12.60
2023-04-09T15:53:50.589Z,12.50
2023-04-09T15:56:17.913Z,12.40
2023-04-09T15:58:45.416Z,12.20
2023-04-09T16:01:12.920Z,12.10
2023-04-09T16:03:41.266Z,12.10
2023-04-09T16:06:15.416Z,12.00
2023-04-09T16:08:42.717Z,12.00
2023-04-09T16:11:10.723Z,11.80
2023-04-09T16:13:38.042Z,11.80
2023-04-09T16:16:06.980Z,11.70
2023-04-09T16:18:35.078Z,11.60
2023-04-09T16:21:04.338Z,11.60
2023-04-09T16:23:33.041Z,11.50
2023-04-09T16:26:00.331Z,11.50
2023-04-09T16:28:27.752Z,11.40
2023-04-09T16:30:55.006Z,11.40
2023-04-09T16:33:22.239Z,11.40
2023-04-09T16:35:49.603Z,11.30
2023-04-09T16:38:16.945Z,11.30
2023-04-09T16:40:44.192Z,11.30
2023-04-09T16:43:11.559Z,11.30
2023-04-09T16:45:38.849Z,11.30
2023-04-09T16:48:11.545Z,11.20
2023-04-09T16:50:40.415Z,11.20
2023-04-09T16:53:08.143Z,11.20
2023-04-09T16:55:35.858Z,11.20
2023-04-09T16:58:03.632Z,11.20
2023-04-09T17:00:31.704Z,11.10
2023-04-09T17:02:59.159Z,11.00
2023-04-09T17:05:26.648Z,10.90
2023-04-09T17:07:53.893Z,10.80
2023-04-09T17:10:21.381Z,10.80
2023-04-09T17:12:48.724Z,10.70
2023-04-09T17:15:16.819Z,10.70
2023-04-09T17:17:46.310Z,10.60
2023-04-09T17:20:13.753Z,10.60
2023-04-09T17:22:41.051Z,10.50
2023-04-09T17:25:09.497Z,10.50
2023-04-09T17:27:36.735Z,10.40
2023-04-09T17:30:04.416Z,10.40
2023-04-09T17:32:31.959Z,10.30
2023-04-09T17:34:59.742Z,10.20
2023-04-09T17:37:29.949Z,10.10
2023-04-09T17:39:57.167Z,10.10
2023-04-09T17:42:24.652Z,10.00
2023-04-09T17:44:52.111Z,9.90
2023-04-09T17:47:19.683Z,9.90
2023-04-09T17:49:47.056Z,9.80
2023-04-09T17:52:14.861Z,9.80
2023-04-09T17:54:45.492Z,9.80
2023-04-09T17:57:12.913Z,9.80
2023-04-09T17:59:41.021Z,9.80
2023-04-09T18:02:08.738Z,9.80
2023-04-09T18:04:36.410Z,9.80
2023-04-09T18:07:04.467Z,9.80
2023-04-09T18:09:33.036Z,9.80
2023-04-09T18:12:02.694Z,9.80
2023-04-09T18:14:32.539Z,9.80
2023-04-09T18:17:00.089Z,9.80
2023-04-09T18:19:27.886Z,9.80
2023-04-09T18:21:55.680Z,9.80
2023-04-09T18:24:23.535Z,9.80
2023-04-09T18:26:52.006Z,9.80
2023-04-09T18:29:20.198Z,9.70
2023-04-09T18:31:47.479Z,9.80
2023-04-09T18:34:14.818Z,9.80
2023-04-09T18:36:42.881Z,9.70
2023-04-09T18:39:10.617Z,9.70
2023-04-09T18:41:37.993Z,9.70
2023-04-09T18:44:06.201Z,9.70
2023-04-09T18:46:33.512Z,9.70
2023-04-09T18:49:00.805Z,9.70
2023-04-09T18:51:28.264Z,9.70
2023-04-09T18:53:56.111Z,9.60
2023-04-09T18:56:24.774Z,9.70
2023-04-09T18:58:52.512Z,9.60
2023-04-09T19:01:20.382Z,9.60
2023-04-09T19:03:48.848Z,9.60
2023-04-09T19:06:19.674Z,9.50
2023-04-09T19:08:50.119Z,9.50
2023-04-09T19:11:17.619Z,9.50
2023-04-09T19:13:45.192Z,9.50
2023-04-09T19:16:12.672Z,9.50
2023-04-09T19:18:41.474Z,9.50
2023-04-09T19:21:09.114Z,9.50
2023-04-09T19:23:36.617Z,9.50
2023-04-09T19:26:07.515Z,9.50
2023-04-09T19:28:35.011Z,9.50
2023-04-09T19:31:05.854Z,9.40
2023-04-09T19:33:33.187Z,9.40
2023-04-09T19:36:00.591Z,9.40
2023-04-09T19:38:28.241Z,9.40
2023-04-09T19:40:55.553Z,9.40
2023-04-09T19:43:24.080Z,9.40
2023-04-09T19:45:51.277Z,9.40
2023-04-09T19:48:18.755Z,9.40
2023-04-09T19:50:46.549Z,9.30
2023-04-09T19:53:13.823Z,9.20
2023-04-09T19:55:41.510Z,9.20
2023-04-09T19:58:11.133Z,9.00
2023-04-09T20:00:38.378Z,9.00
2023-04-09T20:03:07.146Z,8.90
2023-04-09T20:05:36.122Z,8.90
2023-04-09T20:08:08.123Z,8.80
2023-04-09T20:10:41.104Z,8.80
2023-04-09T20:13:08.893Z,8.80
2023-04-09T20:15:36.199Z,8.80
2023-04-09T20:18:06.182Z,8.80
2023-04-09T20:20:33.468Z,8.80
2023-04-09T20:23:00.964Z,8.80
2023-04-09T20:25:34.748Z,8.70
2023-04-09T20:28:10.164Z,8.70
2023-04-09T20:30:37.501Z,8.70
2023-04-09T20:33:04.898Z,8.60
2023-04-09T20:35:36.294Z,8.60
2023-04-09T20:38:03.980Z,8.60
2023-04-09T20:40:32.091Z,8.60
2023-04-09T20:42:59.543Z,8.50
2023-04-09T20:45:26.892Z,8.50
2023-04-09T20:47:54.245Z,8.40
2023-04-09T20:50:21.920Z,8.40
2023-04-09T20:52:49.733Z,8.40
2023-04-09T20:55:17.586Z,8.30
2023-04-09T20:57:45.113Z,8.30
2023-04-09T21:00:13.200Z,8.20
2023-04-09T21:02:41.607Z,8.20
2023-04-09T21:07:42.641Z,8.10
2023-04-09T21:10:10.280Z,8.00
2023-04-09T21:12:40.750Z,8.00
2023-04-09T21:15:13.267Z,7.90
2023-04-09T21:17:40.620Z,7.90
2023-04-09T21:20:08.864Z,7.90
2023-04-09T21:22:36.399Z,7.90
2023-04-09T21:25:04.166Z,7.90
2023-04-09T21:27:31.500Z,7.80
2023-04-09T21:29:59.015Z,7.90
2023-04-09T21:32:26.423Z,7.80
2023-04-09T21:34:53.879Z,7.80
2023-04-09T21:37:21.180Z,7.80
2023-04-09T21:39:48.973Z,7.80
2023-04-09T21:42:16.239Z,7.80
2023-04-09T21:44:43.440Z,7.80
2023-04-09T21:47:12.286Z,7.80
2023-04-09T21:49:40.747Z,7.90
2023-04-09T21:52:14.684Z,7.90
2023-04-09T21:54:43.496Z,7.90
2023-04-09T21:57:11.470Z,7.90
2023-04-09T21:59:41.089Z,7.90
2023-04-09T22:02:09.735Z,7.90
2023-04-09T22:04:37.524Z,7.90
2023-04-09T22:07:04.835Z,7.90
2023-04-09T22:09:32.067Z,7.90
2023-04-09T22:11:59.756Z,7.80
2023-04-09T22:14:29.641Z,7.90
2023-04-09T22:17:01.828Z,7.80
2023-04-09T22:19:31.959Z,7.80
2023-04-09T22:21:59.484Z,7.70
2023-04-09T22:24:28.718Z,7.70
2023-04-09T22:27:01.532Z,7.60
2023-04-09T22:29:29.501Z,7.60
2023-04-09T22:31:56.750Z,7.60
2023-04-09T22:34:24.079Z,7.50
2023-04-09T22:36:51.351Z,7.40
2023-04-09T22:39:18.673Z,7.30
2023-04-09T22:41:45.904Z,7.30
2023-04-09T22:44:14.677Z,7.20
2023-04-09T22:46:42.249Z,7.20
2023-04-09T22:49:09.731Z,7.10
2023-04-09T22:51:38.126Z,7.10
2023-04-09T22:54:06.181Z,7.00
2023-04-09T22:56:34.630Z,7.00
2023-04-09T22:59:01.866Z,6.90
2023-04-09T23:01:29.504Z,6.90
2023-04-09T23:03:56.993Z,6.80
2023-04-09T23:06:25.919Z,6.80
2023-04-09T23:08:53.524Z,6.80
2023-04-09T23:11:21.302Z,6.70
2023-04-09T23:13:48.623Z,6.70
2023-04-09T23:16:16.300Z,6.70
2023-04-09T23:18:44.276Z,6.60
2023-04-09T23:21:12.024Z,6.60
2023-04-09T23:23:40.061Z,6.60
2023-04-09T23:26:07.714Z,6.60
2023-04-09T23:28:34.922Z,6.50
2023-04-09T23:31:02.267Z,6.50
2023-04-09T23:33:29.531Z,6.50
2023-04-09T23:35:57.188Z,6.50
2023-04-09T23:38:24.557Z,6.50
2023-04-09T23:40:51.829Z,6.40
2023-04-09T23:43:19.169Z,6.40
2023-04-09T23:45:46.448Z,6.40
2023-04-09T23:48:13.663Z,6.40
2023-04-09T23:50:42.180Z,6.40
2023-04-09T23:53:09.450Z,6.30
2023-04-09T23:55:38.532Z,6.30
2023-04-09T23:58:06.103Z,6.30
